createdAt,value
2016-06-08T00:00:54.949Z,99.54
2016-06-08T00:01:54.937Z,99.64
2016-06-08T00:02:54.923Z,99.99
2016-06-08T00:03:54.910Z,99.83
2016-06-08T00:04:54.944Z,99.93
2016-06-08T00:05:54.900Z,99.64
2016-06-08T00:06:54.887Z,99.73
2016-06-08T00:07:54.874Z,99.93
2016-06-08T00:08:54.892Z,99.83
2016-06-08T00:09:54.849Z,99.99
2016-06-08T00:10:54.663Z,99.99
2016-06-08T00:11:54.838Z,99.99
2016-06-08T00:12:54.871Z,99.99
2016-06-08T00:13:54.796Z,99.99
2016-06-08T00:14:54.783Z,99.83
2016-06-08T00:15:54.771Z,99.73
2016-06-08T00:16:54.758Z,99.99
2016-06-08T00:17:54.745Z,99.78
2016-06-08T00:18:54.732Z,99.99
2016-06-08T00:19:54.734Z,99.49
2016-06-08T00:20:54.706Z,99.44
2016-06-08T00:21:54.709Z,99.44
2016-06-08T00:22:54.680Z,98.72
2016-06-08T00:23:54.682Z,99.21
2016-06-08T00:24:54.513Z,99.3
2016-06-08T00:25:54.657Z,99.21
2016-06-08T00:26:54.659Z,99.21
2016-06-08T00:27:54.631Z,99.21
2016-06-08T00:28:54.617Z,99.59
2016-06-08T00:29:54.605Z,99.98
2016-06-08T00:30:54.592Z,99.88
2016-06-08T00:31:54.579Z,99.73
2016-06-08T00:32:54.411Z,99.98
2016-06-08T00:33:54.553Z,99.78
2016-06-08T00:34:54.556Z,99.99
2016-06-08T00:35:54.543Z,99.99
2016-06-08T00:36:54.530Z,99.83
2016-06-08T00:37:54.361Z,99.83
2016-06-08T00:38:54.504Z,99.69
2016-06-08T00:39:54.555Z,99.99
2016-06-08T00:40:54.478Z,99.73
2016-06-08T00:41:54.466Z,99.93
2016-06-08T00:42:54.453Z,99.93
2016-06-08T00:43:54.440Z,99.64
2016-06-08T00:44:54.427Z,99.83
2016-06-08T00:45:54.413Z,99.73
2016-06-08T00:46:54.401Z,99.54
2016-06-08T00:47:54.404Z,99.44
2016-06-08T00:48:54.391Z,99.93
2016-06-08T00:49:54.377Z,99.73
2016-06-08T00:50:54.365Z,99.93
2016-06-08T00:51:54.351Z,99.99
2016-06-08T00:52:54.339Z,99.99
2016-06-08T00:53:54.326Z,99.64
2016-06-08T00:54:54.312Z,99.93
2016-06-08T00:55:54.660Z,99.35
2016-06-08T00:56:54.818Z,99.44
2016-06-08T00:57:54.274Z,99.26
2016-06-08T00:58:54.277Z,99.35
2016-06-08T00:59:54.279Z,99.35
2016-06-08T01:00:54.251Z,99.93
2016-06-08T01:01:54.253Z,99.93
2016-06-08T01:02:54.209Z,99.16
2016-06-08T01:03:54.290Z,99.93
2016-06-08T01:04:54.200Z,99.93
2016-06-08T01:05:54.249Z,99.44
2016-06-08T01:06:54.173Z,99.64
2016-06-08T01:07:54.222Z,99.99
2016-06-08T01:08:54.163Z,99.35
2016-06-08T01:09:54.150Z,99.44
2016-06-08T01:10:53.980Z,99.54
2016-06-08T01:11:54.828Z,99.44
2016-06-08T01:12:54.096Z,99.83
2016-06-08T01:13:54.146Z,99.83
2016-06-08T01:14:54.086Z,99.73
2016-06-08T01:15:54.119Z,99.73
2016-06-08T01:16:54.060Z,99.99
2016-06-08T01:17:54.046Z,99.93
2016-06-08T01:18:54.034Z,99.68
2016-06-08T01:19:54.083Z,99.49
2016-06-08T01:20:54.024Z,99.99
2016-06-08T01:21:53.995Z,99.99
2016-06-08T01:22:53.998Z,99.99
2016-06-08T01:23:53.985Z,99.99
2016-06-08T01:24:53.956Z,99.99
2016-06-08T01:25:53.943Z,99.99
2016-06-08T01:26:53.945Z,99.99
2016-06-08T01:27:53.934Z,99.99
2016-06-08T01:28:53.920Z,99.99
2016-06-08T01:29:53.954Z,99.88
2016-06-08T01:30:53.895Z,99.99
2016-06-08T01:31:53.928Z,99.99
2016-06-08T01:32:53.868Z,99.99
2016-06-08T01:33:53.855Z,99.93
2016-06-08T01:34:53.842Z,99.73
2016-06-08T01:35:53.845Z,99.99
2016-06-08T01:36:53.817Z,99.99
2016-06-08T01:37:53.819Z,99.99
2016-06-08T01:38:53.791Z,99.99
2016-06-08T01:39:53.777Z,99.88
2016-06-08T01:40:53.764Z,99.99
2016-06-08T01:41:53.767Z,99.99
2016-06-08T01:42:53.769Z,99.99
2016-06-08T01:43:53.727Z,99.99
2016-06-08T01:44:53.729Z,99.99
2016-06-08T01:45:53.732Z,99.99
2016-06-08T01:46:53.703Z,99.99
2016-06-08T01:47:53.690Z,99.99
2016-06-08T01:48:53.661Z,99.99
2016-06-08T01:49:53.663Z,99.99
2016-06-08T01:50:53.651Z,99.99
2016-06-08T01:51:53.638Z,99.68
2016-06-08T01:52:53.641Z,99.99
2016-06-08T01:53:53.628Z,99.99
2016-06-08T01:54:53.615Z,99.99
2016-06-08T01:55:53.601Z,99.99
2016-06-08T01:56:53.589Z,99.99
2016-06-08T01:57:53.560Z,99.99
2016-06-08T01:58:53.548Z,99.99
2016-06-08T01:59:53.551Z,99.99
2016-06-08T02:00:53.537Z,99.99
2016-06-08T02:01:53.509Z,99.99
2016-06-08T02:02:53.496Z,99.99
2016-06-08T02:03:53.498Z,99.99
2016-06-08T02:04:53.486Z,99.99
2016-06-08T02:05:53.472Z,99.99
2016-06-08T02:06:53.475Z,99.99
2016-06-08T02:07:53.431Z,99.99
2016-06-08T02:08:53.278Z,99.99
2016-06-08T02:09:53.421Z,99.99
2016-06-08T02:10:53.408Z,99.99
2016-06-08T02:11:54.082Z,99.99
2016-06-08T02:12:53.461Z,99.88
2016-06-08T02:13:53.385Z,99.88
2016-06-08T02:14:53.450Z,99.78
2016-06-08T02:15:53.359Z,99.68
2016-06-08T02:16:53.393Z,99.78
2016-06-08T02:17:53.318Z,99.59
2016-06-08T02:18:53.321Z,99.88
2016-06-08T02:19:53.307Z,99.4
2016-06-08T02:20:53.294Z,99.68
2016-06-08T02:21:53.296Z,99.98
2016-06-08T02:22:53.268Z,99.98
2016-06-08T02:23:53.255Z,99.21
2016-06-08T02:24:53.290Z,99.49
2016-06-08T02:25:53.229Z,99.4
2016-06-08T02:26:53.420Z,99.3
2016-06-08T02:27:53.844Z,99.01
2016-06-08T02:28:53.190Z,99.21
2016-06-08T02:29:53.178Z,99.21
2016-06-08T02:30:53.023Z,99.3
2016-06-08T02:31:53.152Z,99.01
2016-06-08T02:32:53.139Z,99.15
2016-06-08T02:33:53.126Z,99.06
2016-06-08T02:34:53.129Z,99.25
2016-06-08T02:35:53.100Z,99.44
2016-06-08T02:36:53.103Z,99.44
2016-06-08T02:37:53.106Z,99.25
2016-06-08T02:38:53.077Z,99.35
2016-06-08T02:39:53.064Z,99.15
2016-06-08T02:40:53.051Z,99.35
2016-06-08T02:41:53.538Z,99.44
2016-06-08T02:42:53.697Z,99.92
2016-06-08T02:43:53.012Z,99.83
2016-06-08T02:44:52.999Z,99.35
2016-06-08T02:45:52.972Z,99.25
2016-06-08T02:46:52.957Z,99.99
2016-06-08T02:47:52.961Z,99.99
2016-06-08T02:48:52.947Z,99.73
2016-06-08T02:49:52.950Z,99.63
2016-06-08T02:50:52.922Z,99.44
2016-06-08T02:51:52.924Z,99.44
2016-06-08T02:52:52.912Z,99.35
2016-06-08T02:53:52.883Z,99.35
2016-06-08T02:54:52.870Z,99.15
2016-06-08T02:55:52.873Z,99.25
2016-06-08T02:56:52.860Z,99.15
2016-06-08T02:57:52.831Z,99.63
2016-06-08T02:58:52.818Z,99.78
2016-06-08T02:59:52.805Z,99.35
2016-06-08T03:00:52.808Z,99.54
2016-06-08T03:01:52.796Z,99.63
2016-06-08T03:02:52.781Z,99.83
2016-06-08T03:03:52.754Z,99.97
2016-06-08T03:04:52.740Z,99.58
2016-06-08T03:05:52.728Z,99.99
2016-06-08T03:06:52.731Z,99.99
2016-06-08T03:07:52.717Z,99.99
2016-06-08T03:08:52.705Z,99.92
2016-06-08T03:09:52.723Z,99.3
2016-06-08T03:10:52.663Z,99.15
2016-06-08T03:11:52.666Z,99.15
2016-06-08T03:12:52.903Z,99.06
2016-06-08T03:13:52.655Z,99.2
2016-06-08T03:14:52.627Z,98.96
2016-06-08T03:15:52.644Z,99.25
2016-06-08T03:16:52.601Z,98.72
2016-06-08T03:17:52.573Z,99.06
2016-06-08T03:18:52.575Z,99.4
2016-06-08T03:19:52.563Z,99.58
2016-06-08T03:20:52.549Z,99.2
2016-06-08T03:21:52.615Z,99.2
2016-06-08T03:22:52.523Z,98.58
2016-06-08T03:23:52.510Z,98.77
2016-06-08T03:24:52.498Z,98.58
2016-06-08T03:25:52.485Z,98.58
2016-06-08T03:26:52.332Z,98.72
2016-06-08T03:27:52.490Z,98.34
2016-06-08T03:28:52.462Z,98.86
2016-06-08T03:29:52.526Z,98.58
2016-06-08T03:30:52.420Z,98.63
2016-06-08T03:31:52.406Z,98.53
2016-06-08T03:32:52.394Z,98.72
2016-06-08T03:33:52.398Z,98.24
2016-06-08T03:34:52.384Z,98.53
2016-06-08T03:35:52.403Z,98.48
2016-06-08T03:36:52.358Z,97.86
2016-06-08T03:37:52.329Z,97.66
2016-06-08T03:38:52.332Z,97.96
2016-06-08T03:39:52.319Z,97.96
2016-06-08T03:40:52.306Z,97.38
2016-06-08T03:41:52.294Z,97.47
2016-06-08T03:42:52.281Z,97.57
2016-06-08T03:43:52.267Z,97.66
2016-06-08T03:44:52.239Z,98.05
2016-06-08T03:45:52.226Z,98.43
2016-06-08T03:46:52.213Z,98.43
2016-06-08T03:47:52.199Z,98.14
2016-06-08T03:48:52.203Z,98.63
2016-06-08T03:49:52.190Z,97.76
2016-06-08T03:50:52.177Z,97.76
2016-06-08T03:51:52.163Z,97.66
2016-06-08T03:52:52.151Z,97.76
2016-06-08T03:53:52.122Z,97.76
2016-06-08T03:54:52.110Z,97.76
2016-06-08T03:55:52.096Z,97.66
2016-06-08T03:56:52.099Z,97.76
2016-06-08T03:57:52.086Z,97.57
2016-06-08T03:58:52.074Z,97.38
2016-06-08T03:59:52.061Z,97.47
2016-06-08T04:00:51.891Z,97.66
2016-06-08T04:01:51.878Z,97.96
2016-06-08T04:02:52.021Z,97.47
2016-06-08T04:03:52.009Z,96.8
2016-06-08T04:04:51.995Z,97.33
2016-06-08T04:05:51.983Z,97.57
2016-06-08T04:06:51.970Z,97.09
2016-06-08T04:07:51.957Z,97.38
2016-06-08T04:08:51.944Z,97.47
2016-06-08T04:09:51.915Z,97.38
2016-06-08T04:10:51.762Z,97.28
2016-06-08T04:11:51.905Z,96.47
2016-06-08T04:12:52.455Z,96.8
2016-06-08T04:13:51.879Z,96.51
2016-06-08T04:14:51.867Z,97.47
2016-06-08T04:15:51.854Z,97.28
2016-06-08T04:16:51.841Z,96.99
2016-06-08T04:17:51.827Z,96.51
2016-06-08T04:18:51.814Z,96.32
2016-06-08T04:19:51.802Z,97.38
2016-06-08T04:20:51.788Z,96.99
2016-06-08T04:21:51.776Z,96.32
2016-06-08T04:22:51.779Z,96.7
2016-06-08T04:23:51.750Z,96.89
2016-06-08T04:24:51.737Z,96.42
2016-06-08T04:25:51.724Z,95.94
2016-06-08T04:26:51.711Z,96.32
2016-06-08T04:27:51.713Z,95.26
2016-06-08T04:28:51.685Z,96.08
2016-06-08T04:29:51.672Z,95.31
2016-06-08T04:30:51.660Z,94.93
2016-06-08T04:31:51.491Z,94.93
2016-06-08T04:32:51.634Z,95.31
2016-06-08T04:33:51.621Z,94.93
2016-06-08T04:34:51.623Z,94.83
2016-06-08T04:35:51.595Z,94.73
2016-06-08T04:36:51.581Z,94.64
2016-06-08T04:37:51.584Z,94.83
2016-06-08T04:38:51.618Z,94.26
2016-06-08T04:39:51.559Z,94.26
2016-06-08T04:40:51.545Z,93.96
2016-06-08T04:41:51.517Z,94.83
2016-06-08T04:42:51.926Z,94.64
2016-06-08T04:43:51.491Z,93.87
2016-06-08T04:44:51.494Z,94.16
2016-06-08T04:45:51.480Z,94.69
2016-06-08T04:46:51.469Z,94.93
2016-06-08T04:47:51.456Z,94.45
2016-06-08T04:48:51.442Z,94.64
2016-06-08T04:49:51.429Z,94.73
2016-06-08T04:50:51.416Z,94.35
2016-06-08T04:51:51.419Z,93.49
2016-06-08T04:52:51.390Z,93.39
2016-06-08T04:53:51.378Z,92.43
2016-06-08T04:54:51.365Z,93.1
2016-06-08T04:55:51.352Z,93.34
2016-06-08T04:56:51.338Z,93.1
2016-06-08T04:57:51.326Z,93.1
2016-06-08T04:58:51.376Z,93.68
2016-06-08T04:59:51.299Z,92.81
2016-06-08T05:00:51.318Z,93.1
2016-06-08T05:01:51.289Z,92.91
2016-06-08T05:02:51.261Z,92.62
2016-06-08T05:03:51.249Z,91.95
2016-06-08T05:04:51.251Z,91.95
2016-06-08T05:05:51.223Z,91.75
2016-06-08T05:06:51.228Z,92.24
2016-06-08T05:07:51.225Z,92.43
2016-06-08T05:08:51.223Z,92.24
2016-06-08T05:09:51.220Z,91.71
2016-06-08T05:10:51.203Z,92.19
2016-06-08T05:11:51.213Z,91.9
2016-06-08T05:12:51.204Z,91.71
2016-06-08T05:13:51.194Z,91.99
2016-06-08T05:14:51.186Z,92.24
2016-06-08T05:15:51.176Z,91.75
2016-06-08T05:16:51.166Z,91.56
2016-06-08T05:17:51.155Z,91.28
2016-06-08T05:18:51.143Z,91.56
2016-06-08T05:19:51.132Z,91.37
2016-06-08T05:20:51.120Z,91.56
2016-06-08T05:21:51.108Z,91.47
2016-06-08T05:22:51.095Z,91.61
2016-06-08T05:23:51.083Z,91.47
2016-06-08T05:24:51.070Z,91.03
2016-06-08T05:25:51.058Z,90.65
2016-06-08T05:26:51.061Z,91.32
2016-06-08T05:27:51.189Z,90.55
2016-06-08T05:28:51.020Z,90.17
2016-06-08T05:29:51.023Z,89.98
2016-06-08T05:30:51.010Z,90.36
2016-06-08T05:31:51.013Z,90.17
2016-06-08T05:32:50.985Z,89.88
2016-06-08T05:33:51.019Z,90.17
2016-06-08T05:34:50.959Z,90.65
2016-06-08T05:35:51.009Z,90.65
2016-06-08T05:36:50.917Z,90.07
2016-06-08T05:37:50.921Z,90.45
2016-06-08T05:38:50.907Z,91.52
2016-06-08T05:39:50.894Z,91.52
2016-06-08T05:40:50.882Z,90.94
2016-06-08T05:41:50.947Z,90.65
2016-06-08T05:42:50.871Z,90.26
2016-06-08T05:43:50.842Z,90.5
2016-06-08T05:44:50.845Z,90.98
2016-06-08T05:45:50.833Z,90.21
2016-06-08T05:46:50.804Z,90.31
2016-06-08T05:47:50.806Z,88.96
2016-06-08T05:48:50.794Z,89.15
2016-06-08T05:49:50.781Z,88.96
2016-06-08T05:50:50.767Z,88.29
2016-06-08T05:51:50.755Z,88.29
2016-06-08T05:52:50.742Z,88.39
2016-06-08T05:53:50.775Z,88.87
2016-06-08T05:54:50.716Z,88.39
2016-06-08T05:55:50.749Z,88.91
2016-06-08T05:56:50.706Z,88.96
2016-06-08T05:57:51.458Z,88.53
2016-06-08T05:58:51.243Z,88.24
2016-06-08T05:59:50.666Z,88.53
2016-06-08T06:00:50.654Z,87.95
2016-06-08T06:01:50.641Z,87.66
2016-06-08T06:02:50.628Z,88.53
2016-06-08T06:03:50.615Z,87.95
2016-06-08T06:04:50.601Z,87.27
2016-06-08T06:05:50.590Z,86.41
2016-06-08T06:06:50.577Z,86.89
2016-06-08T06:07:50.579Z,86.79
2016-06-08T06:08:50.565Z,86.31
2016-06-08T06:09:50.553Z,87.08
2016-06-08T06:10:50.540Z,87.22
2016-06-08T06:11:50.527Z,86.65
2016-06-08T06:12:50.358Z,86.31
2016-06-08T06:13:50.876Z,86.22
2016-06-08T06:14:50.489Z,85.93
2016-06-08T06:15:50.492Z,86.41
2016-06-08T06:16:50.478Z,85.97
2016-06-08T06:17:50.465Z,85.25
2016-06-08T06:18:50.467Z,86.45
2016-06-08T06:19:50.439Z,86.79
2016-06-08T06:20:50.427Z,86.26
2016-06-08T06:21:50.413Z,86.41
2016-06-08T06:22:50.400Z,86.41
2016-06-08T06:23:50.403Z,84.91
2016-06-08T06:24:50.375Z,85.93
2016-06-08T06:25:50.377Z,86.07
2016-06-08T06:26:50.364Z,85.06
2016-06-08T06:27:50.711Z,83.75
2016-06-08T06:28:50.338Z,83.81
2016-06-08T06:29:50.326Z,83.72
2016-06-08T06:30:50.328Z,82.75
2016-06-08T06:31:50.299Z,82.94
2016-06-08T06:32:50.303Z,83.33
2016-06-08T06:33:50.290Z,83.14
2016-06-08T06:34:50.292Z,82.46
2016-06-08T06:35:50.249Z,82.94
2016-06-08T06:36:50.251Z,82.94
2016-06-08T06:37:50.238Z,83.04
2016-06-08T06:38:50.271Z,82.85
2016-06-08T06:39:50.212Z,83.33
2016-06-08T06:40:50.215Z,84.19
2016-06-08T06:41:50.201Z,83.62
2016-06-08T06:42:50.220Z,83.91
2016-06-08T06:43:50.629Z,84
2016-06-08T06:44:50.210Z,83.85
2016-06-08T06:45:50.165Z,84.14
2016-06-08T06:46:50.153Z,83.75
2016-06-08T06:47:50.125Z,83.56
2016-06-08T06:48:50.173Z,82.98
2016-06-08T06:49:50.098Z,82.7
2016-06-08T06:50:50.100Z,82.5
2016-06-08T06:51:50.072Z,82.7
2016-06-08T06:52:50.091Z,83.18
2016-06-08T06:53:50.062Z,82.83
2016-06-08T06:54:50.050Z,82.35
2016-06-08T06:55:50.052Z,81.96
2016-06-08T06:56:50.039Z,81.77
2016-06-08T06:57:50.197Z,82.29
2016-06-08T06:58:50.138Z,82.35
2016-06-08T06:59:50.016Z,83.22
2016-06-08T07:00:50.018Z,82.78
2016-06-08T07:01:49.974Z,81.62
2016-06-08T07:02:49.977Z,81.81
2016-06-08T07:03:49.793Z,81.04
2016-06-08T07:04:49.936Z,79.98
2016-06-08T07:05:49.937Z,79.69
2016-06-08T07:06:49.926Z,79.41
2016-06-08T07:07:49.929Z,79.98
2016-06-08T07:08:49.915Z,80.18
2016-06-08T07:09:49.902Z,79.5
2016-06-08T07:10:49.873Z,78.67
2016-06-08T07:11:49.876Z,79.35
2016-06-08T07:12:49.863Z,79.35
2016-06-08T07:13:50.397Z,78.96
2016-06-08T07:14:49.837Z,79.35
2016-06-08T07:15:49.839Z,79.83
2016-06-08T07:16:49.827Z,80.12
2016-06-08T07:17:49.815Z,78.29
2016-06-08T07:18:49.801Z,78.86
2016-06-08T07:19:49.793Z,79.06
2016-06-08T07:20:49.779Z,78.48
2016-06-08T07:21:49.773Z,78
2016-06-08T07:22:49.593Z,77.42
2016-06-08T07:23:49.739Z,77.51
2016-06-08T07:24:49.732Z,78.48
2016-06-08T07:25:49.750Z,78.67
2016-06-08T07:26:49.722Z,78.48
2016-06-08T07:27:50.272Z,78.38
2016-06-08T07:28:49.775Z,78.96
2016-06-08T07:29:49.683Z,79.83
2016-06-08T07:30:49.686Z,79.44
2016-06-08T07:31:49.672Z,78.58
2016-06-08T07:32:49.660Z,76.75
2016-06-08T07:33:49.647Z,78.23
2016-06-08T07:34:49.633Z,76.55
2016-06-08T07:35:49.627Z,76.26
2016-06-08T07:36:49.614Z,76.68
2016-06-08T07:37:49.617Z,76.59
2016-06-08T07:38:49.604Z,77.07
2016-06-08T07:39:49.591Z,76.65
2016-06-08T07:40:49.599Z,76.2
2016-06-08T07:41:49.586Z,75.82
2016-06-08T07:42:50.557Z,76.68
2016-06-08T07:43:49.575Z,77.26
2016-06-08T07:44:49.547Z,76.4
2016-06-08T07:45:49.565Z,75.43
2016-06-08T07:46:49.536Z,76.68
2016-06-08T07:47:49.523Z,76.4
2016-06-08T07:48:49.510Z,75.47
2016-06-08T07:49:49.513Z,75.76
2016-06-08T07:50:49.496Z,73.93
2016-06-08T07:51:49.466Z,74.12
2016-06-08T07:52:49.469Z,74.41
2016-06-08T07:53:49.519Z,74.73
2016-06-08T07:54:49.443Z,74.93
2016-06-08T07:55:49.446Z,74.35
2016-06-08T07:56:49.435Z,74.35
2016-06-08T07:57:49.422Z,73.38
2016-06-08T07:58:49.269Z,73.77
2016-06-08T07:59:49.412Z,73.96
2016-06-08T08:00:49.399Z,73.86
2016-06-08T08:01:49.386Z,73.86
2016-06-08T08:02:49.373Z,72.26
2016-06-08T08:03:49.376Z,72.64
2016-06-08T08:04:49.378Z,73.09
2016-06-08T08:05:49.381Z,73.22
2016-06-08T08:06:49.353Z,73.13
2016-06-08T08:07:49.325Z,73.13
2016-06-08T08:08:49.312Z,73.52
2016-06-08T08:09:49.314Z,74.29
2016-06-08T08:10:49.317Z,73.71
2016-06-08T08:11:49.307Z,73.71
2016-06-08T08:12:49.294Z,73.71
2016-06-08T08:13:49.125Z,72.78
2016-06-08T08:14:49.275Z,73.07
2016-06-08T08:15:49.263Z,71.26
2016-06-08T08:16:49.249Z,71.14
2016-06-08T08:17:49.237Z,71.81
2016-06-08T08:18:49.240Z,72
2016-06-08T08:19:49.071Z,72.1
2016-06-08T08:20:49.229Z,72.3
2016-06-08T08:21:49.216Z,70.4
2016-06-08T08:22:49.203Z,69.27
2016-06-08T08:23:49.191Z,67.05
2016-06-08T08:24:49.210Z,66.27
2016-06-08T08:25:49.023Z,66.56
2016-06-08T08:26:49.183Z,65.5
2016-06-08T08:27:48.998Z,66.53
2016-06-08T08:28:49.188Z,67.69
2016-06-08T08:29:49.145Z,65.59
2016-06-08T08:30:49.193Z,66.63
2016-06-08T08:31:49.118Z,66.85
2016-06-08T08:32:49.120Z,66.66
2016-06-08T08:33:49.123Z,66.27
2016-06-08T08:34:49.111Z,67.72
2016-06-08T08:35:49.097Z,66.6
2016-06-08T08:36:49.100Z,66.95
2016-06-08T08:37:49.087Z,65.69
2016-06-08T08:38:49.200Z,65.05
2016-06-08T08:39:48.922Z,64.47
2016-06-08T08:40:49.080Z,64.17
2016-06-08T08:41:49.052Z,64.47
2016-06-08T08:42:49.055Z,63.62
2016-06-08T08:43:49.058Z,63.62
2016-06-08T08:44:49.028Z,63.34
2016-06-08T08:45:49.031Z,63.46
2016-06-08T08:46:49.002Z,64.04
2016-06-08T08:47:49.005Z,63.95
2016-06-08T08:48:48.991Z,62.62
2016-06-08T08:49:48.979Z,63.01
2016-06-08T08:50:48.982Z,63.1
2016-06-08T08:51:48.968Z,63.43
2016-06-08T08:52:48.971Z,62.91
2016-06-08T08:53:48.959Z,64.24
2016-06-08T08:54:48.961Z,64.37
2016-06-08T08:55:48.948Z,63.88
2016-06-08T08:56:48.935Z,62.95
2016-06-08T08:57:48.938Z,64.56
2016-06-08T08:58:49.082Z,64.82
2016-06-08T08:59:48.929Z,65.24
2016-06-08T09:00:48.758Z,65.3
2016-06-08T09:01:48.965Z,66.53
2016-06-08T09:02:48.937Z,67.21
2016-06-08T09:03:48.923Z,66.34
2016-06-08T09:04:48.879Z,65.66
2016-06-08T09:05:48.897Z,67.5
2016-06-08T09:06:48.869Z,66.92
2016-06-08T09:07:48.856Z,67.02
2016-06-08T09:08:48.874Z,65.69
2016-06-08T09:09:48.845Z,66.37
2016-06-08T09:10:48.848Z,66.47
2016-06-08T09:11:48.678Z,65.24
2016-06-08T09:12:48.838Z,63.69
2016-06-08T09:13:49.106Z,64.34
2016-06-08T09:14:48.812Z,65.75
2016-06-08T09:15:48.799Z,64.69
2016-06-08T09:16:48.802Z,65.01
2016-06-08T09:17:48.805Z,64.47
2016-06-08T09:18:48.791Z,63.4
2016-06-08T09:19:48.779Z,64.01
2016-06-08T09:20:48.782Z,63.37
2016-06-08T09:21:48.769Z,63.13
2016-06-08T09:22:48.771Z,62.68
2016-06-08T09:23:48.758Z,61.35
2016-06-08T09:24:48.760Z,61.65
2016-06-08T09:25:48.748Z,62.62
2016-06-08T09:26:48.751Z,61.84
2016-06-08T09:27:48.738Z,62.32
2016-06-08T09:28:48.756Z,61.77
2016-06-08T09:29:48.726Z,60.61
2016-06-08T09:30:48.559Z,60.61
2016-06-08T09:31:48.717Z,60.71
2016-06-08T09:32:48.720Z,60.71
2016-06-08T09:33:48.722Z,59.18
2016-06-08T09:34:48.694Z,60.44
2016-06-08T09:35:48.712Z,61
2016-06-08T09:36:48.699Z,60.44
2016-06-08T09:37:48.702Z,60.18
2016-06-08T09:38:48.955Z,59.14
2016-06-08T09:39:48.692Z,59.53
2016-06-08T09:40:48.711Z,61.02
2016-06-08T09:41:48.666Z,61.97
2016-06-08T09:42:48.669Z,59.67
2016-06-08T09:43:48.672Z,59.95
2016-06-08T09:44:49.175Z,59.08
2016-06-08T09:45:48.661Z,59.11
2016-06-08T09:46:48.695Z,59.5
2016-06-08T09:47:48.650Z,58.14
2016-06-08T09:48:48.638Z,58.04
2016-06-08T09:49:48.656Z,59.38
2016-06-08T09:50:48.643Z,59.57
2016-06-08T09:51:48.646Z,59.95
2016-06-08T09:52:48.632Z,59.34
2016-06-08T09:53:48.636Z,61
2016-06-08T09:54:48.623Z,61.65
2016-06-08T09:55:48.641Z,60.68
2016-06-08T09:56:48.628Z,61
2016-06-08T09:57:48.615Z,61.09
2016-06-08T09:58:48.618Z,61.32
2016-06-08T09:59:49.136Z,61.19
2016-06-08T10:00:48.592Z,60.41
2016-06-08T10:01:48.595Z,60.9
2016-06-08T10:02:48.582Z,61.09
2016-06-08T10:03:48.584Z,60.8
2016-06-08T10:04:48.587Z,59.54
2016-06-08T10:05:48.559Z,58.18
2016-06-08T10:06:48.562Z,59.25
2016-06-08T10:07:48.565Z,59.31
2016-06-08T10:08:48.550Z,58.23
2016-06-08T10:09:48.554Z,57.59
2016-06-08T10:10:48.556Z,57.42
2016-06-08T10:11:48.590Z,57.87
2016-06-08T10:12:48.547Z,57.75
2016-06-08T10:13:48.533Z,58.33
2016-06-08T10:14:48.380Z,57.85
2016-06-08T10:15:48.523Z,57.03
2016-06-08T10:16:48.526Z,57.03
2016-06-08T10:17:48.513Z,56.18
2016-06-08T10:18:48.515Z,55.99
2016-06-08T10:19:48.518Z,54.94
2016-06-08T10:20:48.521Z,55.52
2016-06-08T10:21:48.508Z,56.3
2016-06-08T10:22:48.510Z,55.52
2016-06-08T10:23:48.497Z,55.33
2016-06-08T10:24:48.499Z,54.85
2016-06-08T10:25:48.487Z,54.68
2016-06-08T10:26:48.490Z,54.94
2016-06-08T10:27:48.477Z,56.6
2016-06-08T10:28:49.183Z,56.6
2016-06-08T10:29:48.654Z,55.23
2016-06-08T10:30:48.548Z,54.26
2016-06-08T10:31:48.472Z,54.89
2016-06-08T10:32:48.460Z,55.08
2016-06-08T10:33:48.478Z,55.89
2016-06-08T10:34:48.465Z,54.79
2016-06-08T10:35:48.451Z,54.13
2016-06-08T10:36:48.454Z,53.26
2016-06-08T10:37:48.457Z,53.38
2016-06-08T10:38:48.445Z,51.95
2016-06-08T10:39:48.462Z,52.73
2016-06-08T10:40:48.434Z,52.63
2016-06-08T10:41:48.437Z,53.24
2016-06-08T10:42:48.423Z,53.24
2016-06-08T10:43:48.442Z,51.39
2016-06-08T10:44:48.461Z,53.11
2016-06-08T10:45:48.447Z,53.92
2016-06-08T10:46:48.419Z,53.92
2016-06-08T10:47:48.405Z,53.6
2016-06-08T10:48:48.393Z,53.77
2016-06-08T10:49:48.396Z,54.33
2016-06-08T10:50:48.399Z,55.21
2016-06-08T10:51:48.385Z,56.41
2016-06-08T10:52:48.700Z,56.07
2016-06-08T10:53:48.391Z,56.49
2016-06-08T10:54:48.378Z,56.95
2016-06-08T10:55:48.365Z,56.46
2016-06-08T10:56:48.351Z,56.46
2016-06-08T10:57:48.198Z,56.85
2016-06-08T10:58:49.310Z,57.92
2016-06-08T10:59:48.360Z,58.18
2016-06-08T11:00:48.347Z,57.53
2016-06-08T11:01:48.350Z,57.79
2016-06-08T11:02:48.337Z,57.92
2016-06-08T11:03:48.199Z,57.43
2016-06-08T11:04:48.326Z,57.23
2016-06-08T11:05:48.314Z,58.18
2016-06-08T11:06:48.317Z,59.67
2016-06-08T11:07:48.320Z,58.28
2016-06-08T11:08:48.322Z,57.89
2016-06-08T11:09:48.309Z,57.6
2016-06-08T11:10:48.295Z,57.01
2016-06-08T11:11:48.298Z,56.07
2016-06-08T11:12:48.286Z,55.58
2016-06-08T11:13:50.585Z,56.21
2016-06-08T11:14:48.291Z,57.18
2016-06-08T11:15:48.341Z,56.82
2016-06-08T11:16:48.249Z,56.04
2016-06-08T11:17:48.267Z,56.14
2016-06-08T11:18:48.255Z,55.55
2016-06-08T11:19:48.241Z,56.56
2016-06-08T11:20:48.245Z,55.88
2016-06-08T11:21:48.233Z,56.36
2016-06-08T11:22:48.234Z,54.61
2016-06-08T11:23:48.238Z,55.19
2016-06-08T11:24:48.052Z,56.14
2016-06-08T11:25:48.258Z,56.24
2016-06-08T11:26:48.199Z,56.26
2016-06-08T11:27:48.216Z,55.39
2016-06-08T11:28:48.047Z,54.83
2016-06-08T11:29:48.941Z,55.13
2016-06-08T11:30:48.193Z,55.32
2016-06-08T11:31:48.212Z,55.22
2016-06-08T11:32:48.152Z,56.29
2016-06-08T11:33:48.185Z,55.15
2016-06-08T11:34:48.157Z,55.25
2016-06-08T11:35:48.160Z,55.41
2016-06-08T11:36:48.162Z,54.74
2016-06-08T11:37:48.150Z,56.29
2016-06-08T11:38:48.136Z,55.64
2016-06-08T11:39:47.998Z,56.03
2016-06-08T11:40:48.127Z,54.82
2016-06-08T11:41:48.114Z,54.43
2016-06-08T11:42:47.960Z,54.16
2016-06-08T11:43:47.962Z,54.68
2016-06-08T11:44:47.934Z,53.8
2016-06-08T11:45:48.109Z,52.83
2016-06-08T11:46:48.096Z,53.41
2016-06-08T11:47:48.098Z,52.63
2016-06-08T11:48:47.961Z,52.4
2016-06-08T11:49:48.088Z,51.75
2016-06-08T11:50:48.653Z,51.56
2016-06-08T11:51:47.906Z,51.14
2016-06-08T11:52:48.065Z,51.95
2016-06-08T11:53:48.068Z,53.16
2016-06-08T11:54:48.055Z,52.8
2016-06-08T11:55:48.041Z,52.67
2016-06-08T11:56:48.045Z,52.89
2016-06-08T11:57:47.875Z,52.12
2016-06-08T11:58:47.877Z,51.99
2016-06-08T11:59:48.052Z,52.26
2016-06-08T12:00:48.040Z,52.36
2016-06-08T12:01:48.010Z,52.75
2016-06-08T12:02:48.061Z,52.36
2016-06-08T12:03:48.016Z,52.38
2016-06-08T12:04:48.003Z,52.12
2016-06-08T12:05:48.007Z,51.9
2016-06-08T12:06:47.993Z,52.19
2016-06-08T12:07:47.996Z,52.43
2016-06-08T12:08:47.984Z,52.14
2016-06-08T12:09:47.970Z,52.94
2016-06-08T12:10:47.989Z,52.67
2016-06-08T12:11:47.992Z,51.31
2016-06-08T12:12:47.978Z,50.85
2016-06-08T12:13:47.981Z,49.58
2016-06-08T12:14:48.031Z,50.07
2016-06-08T12:15:47.955Z,50.85
2016-06-08T12:16:47.942Z,51.34
2016-06-08T12:17:47.945Z,51.02
2016-06-08T12:18:47.838Z,50.75
2016-06-08T12:19:47.934Z,50.63
2016-06-08T12:20:47.921Z,50.14
2016-06-08T12:21:47.924Z,48.61
2016-06-08T12:22:47.911Z,48.88
2016-06-08T12:23:47.899Z,50.21
2016-06-08T12:24:47.916Z,50.7
2016-06-08T12:25:47.904Z,50.41
2016-06-08T12:26:47.907Z,51.58
2016-06-08T12:27:47.894Z,50.9
2016-06-08T12:28:47.725Z,51.29
2016-06-08T12:29:48.321Z,51.58
2016-06-08T12:30:47.885Z,51.75
2016-06-08T12:31:47.936Z,52.16
2016-06-08T12:32:47.860Z,51.67
2016-06-08T12:33:47.847Z,52.59
2016-06-08T12:34:47.865Z,52.4
2016-06-08T12:35:47.946Z,53.64
2016-06-08T12:36:47.840Z,53.11
2016-06-08T12:37:47.842Z,53.11
2016-06-08T12:38:47.845Z,52.62
2016-06-08T12:39:47.832Z,51.84
2016-06-08T12:40:47.834Z,52.65
2016-06-08T12:41:47.822Z,52.38
2016-06-08T12:42:47.809Z,51.73
2016-06-08T12:43:47.812Z,51.02
2016-06-08T12:44:47.642Z,52.38
2016-06-08T12:45:47.801Z,50.87
2016-06-08T12:46:47.789Z,52.24
2016-06-08T12:47:47.775Z,51.95
2016-06-08T12:48:47.637Z,52.53
2016-06-08T12:49:47.781Z,52.73
2016-06-08T12:50:47.783Z,52.14
2016-06-08T12:51:47.755Z,52.31
2016-06-08T12:52:47.758Z,52.77
2016-06-08T12:53:47.760Z,52.67
2016-06-08T12:54:47.763Z,53.16